Aviation Digital Data Service (ADDS)

Output produced by TAFs form (1440 UTC 29 August 2016)
found at http://www.aviationweather.gov/adds/tafs/
 
KAPA 291353Z 00000KT 10SM FEW100 BKN150 19/07 A3031 RMK AO2 SLP201 T01890067
KAPA 291128Z 2912/3012 22011KT P6SM SCT100 BKN130 
     FM291400 VRB05KT P6SM SCT120 BKN150 
     FM291800 06008KT P6SM FEW090 BKN200 
     FM292100 12010KT P6SM SCT090 BKN120 
     PROB30 2921/3002 VRB15G25KT -TSRA BKN090CB 
     FM300200 15008KT P6SM SCT090 BKN120 
     FM300600 20008KT P6SM SCT120 BKN200